Savonburg, Kansas
Current Conditions -  °F | °C
As of 3:52 PM on Monday 26 Jan 2015 (Local Time) from KCNU Reporting Station
Clear Clear  
Wind Chill: 67°   Ceiling: Unl
Heat Index: 67°   Visibility: 10mi
Dew Point: 36°   Wind: 14mph
Humidity: 32%   Direction: 330°NNW
Pressure: 29.96"   Gusts: NA
Location:  37.75°N, 95.14°W
Report Text: KCNU 262152Z AUTO 33012KT 10SM CLR 19/02 A2996 RMK AO2 SLP144 T01940022
Loading
Personal Weather Stations






























Interactive Weather Map New forecast layout! Learn more

10-Day Weather Forecast

Advertisements
Track Severe Weather on mobile